Time;durP1;ratioP1;P1;durP2;ratioP2;P2;SDS_P1;SDS_P2;PMS_P1;PMS_P2;Temp;Humidity;BMP_temperature;BMP_pressure;BME280_temperature;BME280_humidity;BME280_pressure;Samples;Min_cycle;Max_cycle;Signal;HPM_P1;HPM_P2
2023/06/24 00:00:15;;;;;;;;;;;;;;;18.80;98.07;102457.34;5083596;28;20409;-44
2023/06/24 00:02:43;;;;;;;;;;;;;;;18.70;99.06;102449.38;5087219;28;19934;-45
2023/06/24 00:05:09;;;;;;;;;;;;;;;18.63;98.68;102450.06;5087401;28;19924;-45
2023/06/24 00:07:43;;;;;;;;;;;;;;;18.59;97.56;102444.75;5102255;28;19912;-47
2023/06/24 00:10:09;;;;;;;;;;;;;;;18.53;98.58;102455.94;5097103;28;20371;-44
2023/06/24 00:12:34;;;;;;;;;;;;;;;18.48;98.67;102453.22;5096496;28;19951;-44
2023/06/24 00:14:59;;;;;;;;;;;;;;;18.44;98.64;102447.91;5080333;28;20531;-43
2023/06/24 00:17:28;;;;;;;;;;;;;;;18.41;98.50;102450.47;5109979;28;20374;-45
2023/06/24 00:19:54;;;;;;;;;;;;;;;18.36;100.00;102446.88;5104745;28;20495;-45
2023/06/24 00:22:19;;;;;;;;;;;;;;;18.30;99.92;102457.16;5103085;28;19972;-46
2023/06/24 00:24:45;;;;;;;;;;;;;;;18.28;100.00;102464.06;5104355;28;20018;-46
2023/06/24 00:27:10;;;;;;;;;;;;;;;18.26;100.00;102465.75;5103174;28;20259;-47
2023/06/24 00:29:35;;;;;;;;;;;;;;;18.20;100.00;102462.19;5109302;28;20013;-46
2023/06/24 00:32:00;;;;;;;;;;;;;;;18.19;99.60;102459.53;5102486;28;19969;-44
2023/06/24 00:34:26;;;;;;;;;;;;;;;18.18;98.10;102468.19;5103707;28;19959;-44
2023/06/24 00:36:52;;;;;;;;;;;;;;;18.18;97.90;102473.41;5075077;28;19912;-44
2023/06/24 00:39:17;;;;;;;;;;;;;;;18.17;96.51;102467.31;5106874;28;19959;-45
2023/06/24 00:41:42;;;;;;;;;;;;;;;18.18;94.36;102466.47;5107866;28;19927;-47
2023/06/24 00:44:08;;;;;;;;;;;;;;;18.18;90.48;102469.06;5104935;28;19916;-45
2023/06/24 00:46:34;;;;;;;;;;;;;;;18.22;88.28;102470.91;5102930;28;19989;-45
2023/06/24 00:49:00;;;;;;;;;;;;;;;18.23;87.27;102469.16;5092845;28;19955;-45
2023/06/24 00:51:30;;;;;;;;;;;;;;;18.26;87.08;102469.25;5095041;28;19920;-45
2023/06/24 00:53:58;;;;;;;;;;;;;;;18.27;86.01;102472.75;5103964;28;20010;-45
2023/06/24 00:56:34;;;;;;;;;;;;;;;18.27;84.95;102475.34;5105363;28;19947;-45
2023/06/24 00:59:01;;;;;;;;;;;;;;;18.21;85.19;102474.34;5101858;28;19911;-44
2023/06/24 01:01:27;;;;;;;;;;;;;;;18.19;85.14;102472.53;5101765;28;20397;-45
2023/06/24 01:03:53;;;;;;;;;;;;;;;18.12;84.68;102468.94;5100713;28;19912;-45
2023/06/24 01:06:18;;;;;;;;;;;;;;;18.04;84.31;102462.69;5085088;28;19916;-45
2023/06/24 01:08:50;;;;;;;;;;;;;;;17.98;83.47;102464.25;5093548;28;19915;-47
2023/06/24 01:11:15;;;;;;;;;;;;;;;17.91;83.68;102455.44;5105775;28;19916;-44
2023/06/24 01:13:41;;;;;;;;;;;;;;;17.86;83.69;102459.66;5083763;28;19931;-44
2023/06/24 01:16:10;;;;;;;;;;;;;;;17.79;83.95;102458.63;5094855;28;19920;-44
2023/06/24 01:18:43;;;;;;;;;;;;;;;17.74;84.36;102455.03;5093610;28;19920;-44
2023/06/24 01:21:43;;;;;;;;;;;;;;;17.71;85.24;102457.50;5099659;28;19919;-43
2023/06/24 01:24:09;;;;;;;;;;;;;;;17.62;84.16;102452.09;4984027;28;19980;-44
2023/06/24 01:26:48;;;;;;;;;;;;;;;17.60;83.57;102456.41;5053033;28;20346;-43
2023/06/24 01:29:14;;;;;;;;;;;;;;;17.62;83.42;102452.97;5106293;28;19912;-43
2023/06/24 01:31:44;;;;;;;;;;;;;;;17.63;83.16;102446.94;5101316;28;20385;-44
2023/06/24 01:34:18;;;;;;;;;;;;;;;17.58;83.31;102450.25;5102458;28;19994;-46
2023/06/24 01:36:46;;;;;;;;;;;;;;;17.53;82.73;102446.66;5097890;28;19911;-58
2023/06/24 01:39:13;;;;;;;;;;;;;;;17.47;82.88;102447.38;5097099;28;20290;-58
2023/06/24 01:41:42;;;;;;;;;;;;;;;17.42;82.64;102446.41;5097863;28;20286;-58
2023/06/24 01:44:13;;;;;;;;;;;;;;;17.41;83.28;102444.63;5097914;28;19924;-58
2023/06/24 01:46:40;;;;;;;;;;;;;;;17.37;82.69;102442.81;5107981;28;19923;-58
2023/06/24 01:49:07;;;;;;;;;;;;;;;17.32;82.89;102439.22;5081533;28;19916;-58
2023/06/24 01:51:34;;;;;;;;;;;;;;;17.27;84.37;102440.81;5083871;28;20400;-58
2023/06/24 01:54:04;;;;;;;;;;;;;;;17.24;85.27;102430.34;5095176;28;19959;-57
2023/06/24 01:56:31;;;;;;;;;;;;;;;17.22;86.02;102437.22;5105829;28;20417;-58
2023/06/24 01:58:58;;;;;;;;;;;;;;;17.18;86.66;102436.28;5109686;28;19915;-57
2023/06/24 02:01:24;;;;;;;;;;;;;;;17.15;87.47;102437.06;5102931;28;19920;-58
2023/06/24 02:03:50;;;;;;;;;;;;;;;17.12;87.52;102438.72;5111210;28;19920;-58
2023/06/24 02:06:17;;;;;;;;;;;;;;;17.08;88.11;102435.16;5110943;28;20325;-58
2023/06/24 02:08:43;;;;;;;;;;;;;;;17.04;89.15;102420.31;5107696;28;19963;-58
2023/06/24 02:11:09;;;;;;;;;;;;;;;17.02;89.25;102434.97;5110267;28;19950;-58
2023/06/24 02:13:35;;;;;;;;;;;;;;;16.99;89.58;102419.31;5102535;28;19957;-57
2023/06/24 02:16:02;;;;;;;;;;;;;;;16.95;90.72;102422.66;5108458;28;20006;-58
2023/06/24 02:18:28;;;;;;;;;;;;;;;16.90;90.73;102424.25;5103344;28;20364;-58
2023/06/24 02:20:54;;;;;;;;;;;;;;;16.85;90.78;102424.13;5108103;28;19920;-57
2023/06/24 02:23:20;;;;;;;;;;;;;;;16.78;91.25;102422.22;5103390;28;20406;-57
2023/06/24 02:25:46;;;;;;;;;;;;;;;16.74;91.92;102427.28;5100712;28;19920;-59
2023/06/24 02:28:12;;;;;;;;;;;;;;;16.69;92.70;102429.72;5104656;28;19960;-58
2023/06/24 02:30:38;;;;;;;;;;;;;;;16.63;93.08;102430.44;5103189;28;19916;-58
2023/06/24 02:33:04;;;;;;;;;;;;;;;16.60;93.66;102434.66;5097586;28;19920;-58
2023/06/24 02:35:29;;;;;;;;;;;;;;;16.58;94.53;102429.41;5092127;28;19919;-58
2023/06/24 02:37:54;;;;;;;;;;;;;;;16.55;94.47;102420.66;5106447;28;19912;-58
2023/06/24 02:40:20;;;;;;;;;;;;;;;16.50;94.75;102425.75;5080157;28;19942;-58
2023/06/24 02:42:45;;;;;;;;;;;;;;;16.47;94.70;102430.81;5094290;28;19954;-58
2023/06/24 02:45:11;;;;;;;;;;;;;;;16.39;94.75;102429.75;5098659;28;20003;-58
2023/06/24 02:47:36;;;;;;;;;;;;;;;16.31;94.85;102431.22;5109587;28;20006;-58
2023/06/24 02:50:06;;;;;;;;;;;;;;;16.24;96.12;102422.38;5107791;28;19916;-57
2023/06/24 02:52:31;;;;;;;;;;;;;;;16.22;96.80;102421.44;5098792;28;19923;-58
2023/06/24 02:54:57;;;;;;;;;;;;;;;16.20;97.05;102422.22;5096370;28;19919;-58
2023/06/24 02:57:23;;;;;;;;;;;;;;;16.17;97.52;102422.16;5105997;28;19927;-58
2023/06/24 02:59:49;;;;;;;;;;;;;;;16.12;97.70;102426.31;5107350;28;19928;-43
2023/06/24 03:02:16;;;;;;;;;;;;;;;16.08;97.96;102431.44;5104628;28;19931;-47
2023/06/24 03:04:41;;;;;;;;;;;;;;;16.05;98.34;102427.84;5097865;28;19919;-45
2023/06/24 03:07:10;;;;;;;;;;;;;;;16.02;98.85;102432.97;5094740;28;20003;-47
2023/06/24 03:09:35;;;;;;;;;;;;;;;16.00;99.42;102439.78;5104593;28;19974;-44
2023/06/24 03:12:00;;;;;;;;;;;;;;;15.96;99.59;102441.44;5105579;28;19920;-44
2023/06/24 03:14:26;;;;;;;;;;;;;;;15.93;100.00;102437.84;5101331;28;19961;-44
2023/06/24 03:16:51;;;;;;;;;;;;;;;15.92;100.00;102444.75;5101168;28;19970;-44
2023/06/24 03:19:16;;;;;;;;;;;;;;;15.87;100.00;102443.72;5107693;28;20267;-44
2023/06/24 03:21:42;;;;;;;;;;;;;;;15.84;100.00;102438.44;5107084;28;19930;-44
2023/06/24 03:24:07;;;;;;;;;;;;;;;15.80;100.00;102442.66;5108138;28;20309;-47
2023/06/24 03:26:34;;;;;;;;;;;;;;;15.77;100.00;102432.19;5103615;28;19999;-45
2023/06/24 03:28:59;;;;;;;;;;;;;;;15.72;100.00;102425.97;5095819;28;20012;-58
2023/06/24 03:31:24;;;;;;;;;;;;;;;15.67;100.00;102431.84;5097439;28;20393;-57
2023/06/24 03:33:49;;;;;;;;;;;;;;;15.61;100.00;102426.44;5100006;28;19919;-58
2023/06/24 03:36:15;;;;;;;;;;;;;;;15.58;100.00;102434.97;5099291;28;19920;-58
2023/06/24 03:38:41;;;;;;;;;;;;;;;15.56;100.00;102434.06;5099443;28;19920;-58
2023/06/24 03:41:06;;;;;;;;;;;;;;;15.51;100.00;102436.47;5099534;28;19924;-58
2023/06/24 03:43:31;;;;;;;;;;;;;;;15.50;100.00;102437.31;5098563;28;20377;-58
2023/06/24 03:45:56;;;;;;;;;;;;;;;15.49;100.00;102439.88;5095433;28;19916;-59
2023/06/24 03:48:22;;;;;;;;;;;;;;;15.48;100.00;102436.41;5093997;28;19924;-58
2023/06/24 03:50:47;;;;;;;;;;;;;;;15.49;100.00;102442.47;5093636;28;19942;-58
2023/06/24 03:53:12;;;;;;;;;;;;;;;15.45;100.00;102438.00;5095897;28;20006;-58
2023/06/24 03:55:37;;;;;;;;;;;;;;;15.42;100.00;102441.38;5089210;28;19920;-58
2023/06/24 03:58:03;;;;;;;;;;;;;;;15.44;100.00;102446.59;5094157;28;20381;-58
2023/06/24 04:00:28;;;;;;;;;;;;;;;15.45;100.00;102451.84;5095189;28;19932;-58
2023/06/24 04:02:53;;;;;;;;;;;;;;;15.47;100.00;102445.00;5096892;28;20414;-59
2023/06/24 04:05:19;;;;;;;;;;;;;;;15.47;100.00;102446.69;5095349;28;19965;-58
2023/06/24 04:07:46;;;;;;;;;;;;;;;15.48;100.00;102448.47;5096700;28;20026;-59
2023/06/24 04:10:12;;;;;;;;;;;;;;;15.49;100.00;102451.13;5099159;28;19916;-58
2023/06/24 04:12:37;;;;;;;;;;;;;;;15.52;100.00;102450.31;5097265;28;19926;-58
2023/06/24 04:15:03;;;;;;;;;;;;;;;15.52;100.00;102451.19;5097730;28;19911;-58
2023/06/24 04:17:29;;;;;;;;;;;;;;;15.55;100.00;102445.25;5094791;28;19916;-58
2023/06/24 04:19:54;;;;;;;;;;;;;;;15.60;100.00;102451.47;5074976;28;19926;-58
2023/06/24 04:22:20;;;;;;;;;;;;;;;15.79;100.00;102455.56;5096912;28;20389;-58
2023/06/24 04:24:45;;;;;;;;;;;;;;;16.49;100.00;102456.84;5083064;28;20401;-58
2023/06/24 04:27:10;;;;;;;;;;;;;;;17.33;100.00;102451.38;5100804;28;20370;-57
2023/06/24 04:29:35;;;;;;;;;;;;;;;18.19;98.00;102455.19;5100250;28;20333;-59
2023/06/24 04:32:01;;;;;;;;;;;;;;;18.99;94.30;102456.88;5092705;28;19971;-58
2023/06/24 04:34:26;;;;;;;;;;;;;;;19.69;89.18;102449.41;5098148;28;19989;-59
2023/06/24 04:36:51;;;;;;;;;;;;;;;20.29;85.33;102454.63;5092574;28;19923;-58
2023/06/24 04:39:17;;;;;;;;;;;;;;;20.79;82.96;102454.38;5099136;28;19949;-59
2023/06/24 04:41:43;;;;;;;;;;;;;;;21.23;81.23;102451.34;5091906;28;19973;-59
2023/06/24 04:44:08;;;;;;;;;;;;;;;21.66;79.48;102450.00;5101605;28;19916;-58
2023/06/24 04:46:34;;;;;;;;;;;;;;;22.12;77.65;102458.19;5080440;28;19916;-58
2023/06/24 04:49:00;;;;;;;;;;;;;;;22.70;75.22;102462.81;5101147;28;19977;-58
2023/06/24 04:51:25;;;;;;;;;;;;;;;23.31;73.04;102459.47;5096053;28;20350;-59
2023/06/24 04:53:50;;;;;;;;;;;;;;;23.78;72.34;102462.06;5099728;28;19927;-59
2023/06/24 04:56:15;;;;;;;;;;;;;;;24.16;71.84;102461.13;5084912;28;19972;-58
2023/06/24 04:58:40;;;;;;;;;;;;;;;24.46;67.45;102465.44;5093220;28;20371;-58
2023/06/24 05:01:06;;;;;;;;;;;;;;;24.69;68.20;102460.06;5094358;28;20378;-58
2023/06/24 05:03:31;;;;;;;;;;;;;;;24.86;63.94;102458.19;5095093;28;19923;-60
2023/06/24 05:05:56;;;;;;;;;;;;;;;24.97;65.03;102458.13;5085343;28;19927;-58
2023/06/24 05:08:21;;;;;;;;;;;;;;;25.14;67.45;102459.81;5087723;28;20385;-58
2023/06/24 05:10:47;;;;;;;;;;;;;;;25.19;61.03;102456.28;5095004;28;19916;-57
2023/06/24 05:13:12;;;;;;;;;;;;;;;24.99;61.21;102453.72;5096206;28;19916;-58
2023/06/24 05:15:37;;;;;;;;;;;;;;;24.93;64.49;102457.28;5097810;28;19912;-59
2023/06/24 05:18:02;;;;;;;;;;;;;;;24.96;66.57;102453.78;5095563;28;19939;-59
2023/06/24 05:20:28;;;;;;;;;;;;;;;25.06;66.11;102453.75;5105506;28;19924;-58
2023/06/24 05:22:54;;;;;;;;;;;;;;;25.15;64.92;102455.41;5101018;28;20386;-59
2023/06/24 05:25:20;;;;;;;;;;;;;;;25.08;64.15;102449.31;5095698;28;20004;-61
2023/06/24 05:27:45;;;;;;;;;;;;;;;24.99;65.51;102454.59;5102806;28;19955;-59
2023/06/24 05:30:10;;;;;;;;;;;;;;;24.75;61.08;102452.13;5078029;28;19916;-59
2023/06/24 05:32:36;;;;;;;;;;;;;;;24.43;66.82;102453.16;5082097;28;19923;-58
2023/06/24 05:35:01;;;;;;;;;;;;;;;24.43;64.35;102454.94;5084381;28;19966;-58
2023/06/24 05:37:26;;;;;;;;;;;;;;;24.66;65.42;102458.31;5091883;28;19930;-59
2023/06/24 05:39:52;;;;;;;;;;;;;;;24.85;63.63;102456.47;5082502;28;20441;-58
2023/06/24 05:42:18;;;;;;;;;;;;;;;25.02;61.58;102464.25;5076519;28;19923;-58
2023/06/24 05:44:43;;;;;;;;;;;;;;;25.22;64.04;102457.09;5076282;28;19920;-58
2023/06/24 05:47:08;;;;;;;;;;;;;;;25.45;62.75;102461.31;5078658;28;19920;-58
2023/06/24 05:49:33;;;;;;;;;;;;;;;25.59;62.47;102459.44;5078332;28;19931;-58
2023/06/24 05:51:59;;;;;;;;;;;;;;;25.60;63.56;102472.63;5082973;28;20271;-58
2023/06/24 05:54:24;;;;;;;;;;;;;;;25.71;57.14;102464.59;5088852;28;19920;-58
2023/06/24 05:56:49;;;;;;;;;;;;;;;25.74;59.86;102466.38;5086599;28;19970;-58
2023/06/24 05:59:15;;;;;;;;;;;;;;;25.76;58.19;102468.09;5086431;28;19923;-57
2023/06/24 06:01:40;;;;;;;;;;;;;;;25.79;58.20;102467.22;5088954;28;20048;-57
2023/06/24 06:04:05;;;;;;;;;;;;;;;25.64;59.79;102466.41;5081802;28;19916;-58
2023/06/24 06:06:31;;;;;;;;;;;;;;;25.51;59.94;102470.03;5096519;28;20444;-58
2023/06/24 06:08:57;;;;;;;;;;;;;;;25.63;60.54;102469.06;5091261;28;19974;-59
2023/06/24 06:11:22;;;;;;;;;;;;;;;25.70;57.35;102464.63;5088758;28;19916;-58
2023/06/24 06:13:47;;;;;;;;;;;;;;;25.72;54.36;102465.47;5099402;28;20362;-59
2023/06/24 06:16:13;;;;;;;;;;;;;;;25.78;57.75;102471.56;5093309;28;19921;-58
2023/06/24 06:18:38;;;;;;;;;;;;;;;25.33;58.37;102471.06;5085574;28;19930;-58
2023/06/24 06:21:03;;;;;;;;;;;;;;;25.25;57.24;102470.28;5083068;28;20363;-57
2023/06/24 06:23:29;;;;;;;;;;;;;;;25.39;58.58;102472.78;5100278;28;20002;-58
2023/06/24 06:25:54;;;;;;;;;;;;;;;25.40;53.00;102471.91;5080141;28;19962;-58
2023/06/24 06:28:20;;;;;;;;;;;;;;;25.33;56.47;102478.09;5078843;28;20912;-57
2023/06/24 06:30:45;;;;;;;;;;;;;;;25.40;54.19;102480.66;5090619;28;19966;-58
2023/06/24 06:33:10;;;;;;;;;;;;;;;25.48;57.08;102483.25;5100271;28;19915;-58
2023/06/24 06:35:35;;;;;;;;;;;;;;;25.54;55.18;102483.22;5090932;28;20012;-57
2023/06/24 06:38:00;;;;;;;;;;;;;;;25.58;58.24;102487.53;5094778;28;20294;-57
2023/06/24 06:40:28;;;;;;;;;;;;;;;25.74;57.40;102484.81;5097175;28;19920;-58
2023/06/24 06:42:53;;;;;;;;;;;;;;;25.64;55.41;102482.22;5104156;28;19923;-57
2023/06/24 06:45:18;;;;;;;;;;;;;;;25.74;54.76;102476.91;5100453;28;19919;-57
2023/06/24 06:47:44;;;;;;;;;;;;;;;25.62;55.10;102486.63;5096784;28;19945;-58
2023/06/24 06:50:09;;;;;;;;;;;;;;;25.44;52.19;102486.78;5096033;28;19916;-58
2023/06/24 06:52:34;;;;;;;;;;;;;;;25.13;55.40;102487.03;5097836;28;19999;-57
2023/06/24 06:55:00;;;;;;;;;;;;;;;25.31;56.98;102491.28;5080426;28;19912;-57
2023/06/24 06:57:25;;;;;;;;;;;;;;;25.39;57.02;102491.22;5090417;28;20366;-58
2023/06/24 06:59:51;;;;;;;;;;;;;;;25.43;55.96;102490.31;5092560;28;19955;-58
2023/06/24 07:02:16;;;;;;;;;;;;;;;25.48;55.84;102501.69;5099755;28;20324;-58
2023/06/24 07:04:41;;;;;;;;;;;;;;;25.52;54.71;102502.53;5091989;28;20011;-57
2023/06/24 07:07:07;;;;;;;;;;;;;;;25.59;53.31;102502.44;5072728;28;19917;-58
2023/06/24 07:09:32;;;;;;;;;;;;;;;25.43;52.20;102498.22;5072007;28;19998;-57
2023/06/24 07:11:57;;;;;;;;;;;;;;;25.38;54.07;102494.75;5073675;28;19920;-56
2023/06/24 07:14:22;;;;;;;;;;;;;;;25.49;51.54;102505.19;5097643;28;19916;-57
2023/06/24 07:16:48;;;;;;;;;;;;;;;25.36;53.03;102507.94;5091073;28;20445;-57
2023/06/24 07:19:13;;;;;;;;;;;;;;;25.20;52.82;102505.41;5087055;28;19916;-57
2023/06/24 07:21:39;;;;;;;;;;;;;;;25.02;52.49;102507.22;5097145;28;19932;-58
2023/06/24 07:24:04;;;;;;;;;;;;;;;25.06;53.69;102506.38;5097388;28;19939;-58
2023/06/24 07:26:30;;;;;;;;;;;;;;;25.13;53.66;102502.81;5103245;28;20378;-57
2023/06/24 07:28:57;;;;;;;;;;;;;;;25.16;53.26;102504.53;5095951;28;19939;-57
2023/06/24 07:31:22;;;;;;;;;;;;;;;24.95;53.32;102502.03;5098071;28;20007;-58
2023/06/24 07:33:47;;;;;;;;;;;;;;;24.90;54.17;102507.31;5094775;28;20405;-58
2023/06/24 07:36:13;;;;;;;;;;;;;;;25.07;52.06;102509.88;5100026;28;19940;-58
2023/06/24 07:38:39;;;;;;;;;;;;;;;25.12;53.13;102506.34;5097406;28;20119;-58
2023/06/24 07:41:04;;;;;;;;;;;;;;;25.22;52.67;102512.41;5098450;28;19928;-57
2023/06/24 07:43:29;;;;;;;;;;;;;;;25.40;50.13;102508.75;5092131;28;19923;-58
2023/06/24 07:45:54;;;;;;;;;;;;;;;25.39;51.72;102499.13;5104591;28;20030;-58
2023/06/24 07:48:19;;;;;;;;;;;;;;;25.42;51.94;102504.34;5105527;28;19928;-57
2023/06/24 07:50:45;;;;;;;;;;;;;;;25.30;51.83;102502.72;5083990;28;19916;-58
2023/06/24 07:53:10;;;;;;;;;;;;;;;25.19;51.63;102499.28;5094932;28;20390;-57
2023/06/24 07:55:35;;;;;;;;;;;;;;;24.97;51.40;102503.75;5093939;28;19927;-58
2023/06/24 07:58:02;;;;;;;;;;;;;;;25.03;53.04;102503.72;5093985;28;20003;-58
2023/06/24 08:00:27;;;;;;;;;;;;;;;25.09;53.06;102502.84;5098053;28;19958;-58
2023/06/24 08:02:55;;;;;;;;;;;;;;;25.19;52.93;102501.03;5093459;28;19952;-56
2023/06/24 08:05:20;;;;;;;;;;;;;;;25.27;52.58;102504.47;5095687;28;19923;-57
2023/06/24 08:07:45;;;;;;;;;;;;;;;25.36;49.01;102499.13;5096001;28;19916;-58
2023/06/24 08:10:10;;;;;;;;;;;;;;;25.52;52.00;102500.75;5093279;28;19942;-56
2023/06/24 08:12:36;;;;;;;;;;;;;;;25.83;50.64;102498.75;5096228;28;19924;-58
2023/06/24 08:15:01;;;;;;;;;;;;;;;25.99;49.24;102495.97;5092530;28;19923;-57
2023/06/24 08:17:26;;;;;;;;;;;;;;;26.09;48.49;102506.44;5092801;28;19923;-58
2023/06/24 08:19:52;;;;;;;;;;;;;;;26.08;48.85;102498.50;5092079;28;20370;-58
2023/06/24 08:22:17;;;;;;;;;;;;;;;26.05;49.85;102491.53;5098864;28;19924;-56
2023/06/24 08:24:42;;;;;;;;;;;;;;;26.07;47.68;102495.00;5074445;28;19926;-58
2023/06/24 08:27:08;;;;;;;;;;;;;;;26.06;47.59;102493.25;5094503;28;20347;-57
2023/06/24 08:29:33;;;;;;;;;;;;;;;25.98;46.55;102492.47;5092307;28;19915;-58
2023/06/24 08:31:59;;;;;;;;;;;;;;;26.14;47.25;102490.53;5094395;28;20022;-57
2023/06/24 08:34:24;;;;;;;;;;;;;;;26.23;47.68;102479.91;5091448;28;20337;-57
2023/06/24 08:36:49;;;;;;;;;;;;;;;26.32;47.85;102471.88;5082407;28;19981;-58
2023/06/24 08:39:14;;;;;;;;;;;;;;;26.45;46.85;102469.97;5083445;28;19986;-58
2023/06/24 08:41:40;;;;;;;;;;;;;;;26.61;45.74;102482.09;5100595;28;19939;-58
2023/06/24 08:44:05;;;;;;;;;;;;;;;26.59;46.19;102470.69;5088973;28;19986;-58
2023/06/24 08:46:31;;;;;;;;;;;;;;;26.41;46.05;102474.44;5092154;28;19926;-59
2023/06/24 08:49:02;;;;;;;;;;;;;;;26.53;44.98;102478.69;5106077;28;19946;-58
2023/06/24 08:51:29;;;;;;;;;;;;;;;26.65;46.21;102480.28;5102604;28;20489;-57
2023/06/24 08:53:55;;;;;;;;;;;;;;;26.62;45.84;102481.19;5105660;28;19920;-47
2023/06/24 08:56:20;;;;;;;;;;;;;;;26.58;45.06;102482.13;5091964;28;19931;-44
2023/06/24 08:58:46;;;;;;;;;;;;;;;26.70;45.38;102474.06;5063203;28;20009;-46
2023/06/24 09:01:11;;;;;;;;;;;;;;;26.90;45.42;102475.53;5076807;28;19930;-48
2023/06/24 09:03:36;;;;;;;;;;;;;;;27.19;44.13;102470.72;5092438;28;20331;-44
2023/06/24 09:06:01;;;;;;;;;;;;;;;27.32;43.48;102476.69;5082992;28;19970;-44
2023/06/24 09:08:27;;;;;;;;;;;;;;;27.39;42.79;102472.16;5079519;28;19928;-46
2023/06/24 09:10:55;;;;;;;;;;;;;;;27.44;43.63;102468.56;5074190;28;19930;-44
2023/06/24 09:13:22;;;;;;;;;;;;;;;27.26;43.54;102467.09;5079632;28;19934;-47
2023/06/24 09:15:48;;;;;;;;;;;;;;;27.10;40.20;102468.22;5089973;28;20362;-44
2023/06/24 09:18:16;;;;;;;;;;;;;;;26.89;41.89;102463.25;5090922;28;19934;-43
2023/06/24 09:20:44;;;;;;;;;;;;;;;26.73;42.16;102468.72;5079020;28;19930;-47
2023/06/24 09:23:10;;;;;;;;;;;;;;;26.43;42.24;102467.38;5092029;28;20358;-44
2023/06/24 09:25:35;;;;;;;;;;;;;;;26.38;43.94;102463.00;5098743;28;20002;-46
2023/06/24 09:28:01;;;;;;;;;;;;;;;26.31;45.03;102466.63;5100654;28;19916;-46
2023/06/24 09:30:27;;;;;;;;;;;;;;;26.32;45.47;102458.69;5100808;28;19911;-47
2023/06/24 09:32:53;;;;;;;;;;;;;;;26.30;43.03;102454.31;5105616;28;19919;-47
2023/06/24 09:35:19;;;;;;;;;;;;;;;26.19;41.96;102449.19;5105781;28;19931;-46
2023/06/24 09:37:59;;;;;;;;;;;;;;;26.18;43.44;102444.78;5098110;28;19935;-45
2023/06/24 09:40:24;;;;;;;;;;;;;;;26.26;43.26;102439.44;5089532;28;19916;-43
2023/06/24 09:42:50;;;;;;;;;;;;;;;26.26;43.79;102440.28;5096433;28;19923;-44
2023/06/24 09:45:18;;;;;;;;;;;;;;;26.30;42.74;102433.22;5090698;28;19912;-44
2023/06/24 09:47:44;;;;;;;;;;;;;;;26.35;42.71;102444.59;5088250;28;19912;-44
2023/06/24 09:50:09;;;;;;;;;;;;;;;26.46;43.41;102440.09;5075790;28;19920;-44
2023/06/24 09:52:35;;;;;;;;;;;;;;;26.53;43.30;102433.84;5094133;28;19916;-43
2023/06/24 09:55:01;;;;;;;;;;;;;;;26.56;42.87;102431.16;5100834;28;20078;-45
2023/06/24 09:57:28;;;;;;;;;;;;;;;26.59;43.04;102438.16;5078321;28;20042;-44
2023/06/24 09:59:54;;;;;;;;;;;;;;;26.62;42.45;102436.34;5097525;28;20362;-46
2023/06/24 10:02:20;;;;;;;;;;;;;;;26.60;43.32;102432.84;5077576;28;19916;-44
2023/06/24 10:04:46;;;;;;;;;;;;;;;26.64;43.98;102433.69;5098200;28;19947;-46
2023/06/24 10:07:12;;;;;;;;;;;;;;;26.73;43.41;102428.28;5105502;28;19920;-44
2023/06/24 10:09:38;;;;;;;;;;;;;;;26.82;43.68;102435.19;5096413;28;19916;-46
2023/06/24 10:12:04;;;;;;;;;;;;;;;26.92;42.93;102434.16;5077366;28;19958;-47
2023/06/24 10:14:30;;;;;;;;;;;;;;;26.95;43.16;102434.97;5079480;28;19920;-43
2023/06/24 10:17:02;;;;;;;;;;;;;;;27.05;43.22;102435.69;5057505;28;19956;-45
2023/06/24 10:19:28;;;;;;;;;;;;;;;27.06;44.30;102423.41;5075443;28;20492;-49
2023/06/24 10:21:54;;;;;;;;;;;;;;;26.99;43.35;102433.16;5082928;28;19924;-46
2023/06/24 10:24:33;;;;;;;;;;;;;;;27.00;43.75;102435.78;5093953;28;19946;-45
2023/06/24 10:27:05;;;;;;;;;;;;;;;27.01;41.80;102431.38;5077795;28;19912;-46
2023/06/24 10:29:34;;;;;;;;;;;;;;;27.03;43.76;102424.28;5097579;28;19911;-45
2023/06/24 10:32:03;;;;;;;;;;;;;;;27.23;43.86;102427.50;5098357;28;19912;-45
2023/06/24 10:34:33;;;;;;;;;;;;;;;27.40;43.16;102421.94;5087908;28;20263;-44
2023/06/24 10:37:02;;;;;;;;;;;;;;;27.61;42.52;102418.06;5089521;28;19999;-44
2023/06/24 10:39:37;;;;;;;;;;;;;;;27.86;42.23;102415.84;5086853;28;19919;-44
2023/06/24 10:42:37;;;;;;;;;;;;;;;27.90;41.93;102416.66;5085080;28;19923;-46
2023/06/24 10:45:08;;;;;;;;;;;;;;;27.89;40.80;102412.28;5017380;28;20059;-44
2023/06/24 10:47:33;;;;;;;;;;;;;;;27.94;42.41;102411.28;5072316;28;20362;-45
2023/06/24 10:49:58;;;;;;;;;;;;;;;28.06;41.10;102418.97;5079699;28;19927;-46
2023/06/24 10:52:24;;;;;;;;;;;;;;;28.13;40.19;102417.06;5070594;28;20284;-45
2023/06/24 10:54:50;;;;;;;;;;;;;;;28.04;42.43;102409.34;5091117;28;20300;-45
2023/06/24 10:57:20;;;;;;;;;;;;;;;28.04;42.05;102414.63;5090599;28;20411;-48
2023/06/24 10:59:49;;;;;;;;;;;;;;;28.11;41.04;102421.53;5092813;28;20014;-44
2023/06/24 11:02:15;;;;;;;;;;;;;;;28.12;40.94;102404.75;5087576;28;20003;-44
2023/06/24 11:04:44;;;;;;;;;;;;;;;28.30;42.33;102407.00;5089866;28;19916;-46
2023/06/24 11:07:10;;;;;;;;;;;;;;;28.31;41.53;102408.75;5080898;28;19947;-48
2023/06/24 11:09:35;;;;;;;;;;;;;;;28.36;42.28;102407.81;5076970;28;19921;-48
2023/06/24 11:12:02;;;;;;;;;;;;;;;28.19;41.65;102411.63;5089818;28;19916;-46
2023/06/24 11:14:27;;;;;;;;;;;;;;;28.09;41.29;102402.19;5081101;28;19919;-46
2023/06/24 11:16:53;;;;;;;;;;;;;;;28.07;41.70;102393.38;5090625;28;19924;-45
2023/06/24 11:19:18;;;;;;;;;;;;;;;28.08;42.75;102389.84;5091844;28;19916;-44
2023/06/24 11:21:43;;;;;;;;;;;;;;;28.24;42.84;102390.38;5077613;28;20370;-47
2023/06/24 11:24:10;;;;;;;;;;;;;;;28.30;41.30;102391.13;5088570;28;19920;-46
2023/06/24 11:26:36;;;;;;;;;;;;;;;28.33;42.37;102384.91;5094408;28;19927;-43
2023/06/24 11:29:08;;;;;;;;;;;;;;;28.50;40.54;102387.19;5104820;28;19920;-46
2023/06/24 11:31:34;;;;;;;;;;;;;;;28.62;39.84;102378.97;5080110;28;19912;-45
2023/06/24 11:33:59;;;;;;;;;;;;;;;28.61;39.02;102385.19;5069530;28;19950;-47
2023/06/24 11:36:25;;;;;;;;;;;;;;;28.45;37.28;102373.19;5084604;28;19920;-46
2023/06/24 11:38:50;;;;;;;;;;;;;;;28.18;38.68;102378.16;5081896;28;19924;-44
2023/06/24 11:41:15;;;;;;;;;;;;;;;28.02;38.89;102369.69;5078579;28;20290;-46
2023/06/24 11:43:47;;;;;;;;;;;;;;;28.02;39.28;102377.59;5081854;28;19920;-45
2023/06/24 11:46:28;;;;;;;;;;;;;;;28.15;40.68;102374.69;5079296;28;19963;-46
2023/06/24 11:49:06;;;;;;;;;;;;;;;28.36;40.51;102365.47;5081652;28;19916;-44
2023/06/24 11:51:32;;;;;;;;;;;;;;;28.39;38.68;102365.41;5094458;28;19920;-45
2023/06/24 11:54:01;;;;;;;;;;;;;;;28.34;38.97;102365.53;5081949;28;19961;-47
2023/06/24 11:56:36;;;;;;;;;;;;;;;28.21;38.03;102361.34;5105047;28;20424;-43
2023/06/24 11:59:05;;;;;;;;;;;;;;;28.00;39.96;102360.91;5081023;28;19931;-46
2023/06/24 12:01:31;;;;;;;;;;;;;;;27.96;40.21;102355.72;5093562;28;20026;-46
2023/06/24 12:03:56;;;;;;;;;;;;;;;28.10;40.55;102356.31;5080621;28;19985;-45
2023/06/24 12:06:22;;;;;;;;;;;;;;;28.31;41.19;102355.84;5094485;28;19916;-45
2023/06/24 12:08:47;;;;;;;;;;;;;;;28.51;40.82;102354.53;5092818;28;20014;-43
2023/06/24 12:11:12;;;;;;;;;;;;;;;28.76;39.36;102355.72;5082723;28;19998;-44
2023/06/24 12:13:37;;;;;;;;;;;;;;;28.85;39.29;102350.16;5098754;28;20340;-45
2023/06/24 12:16:03;;;;;;;;;;;;;;;28.70;39.54;102347.06;5081518;28;19916;-46
2023/06/24 12:18:28;;;;;;;;;;;;;;;28.81;40.57;102348.50;5093369;28;20382;-44
2023/06/24 12:20:53;;;;;;;;;;;;;;;29.06;39.31;102339.97;5075045;28;20430;-44
2023/06/24 12:23:19;;;;;;;;;;;;;;;29.30;39.14;102334.00;5099017;28;20464;-44
2023/06/24 12:25:44;;;;;;;;;;;;;;;29.45;40.16;102335.41;5094057;28;20489;-47
2023/06/24 12:28:09;;;;;;;;;;;;;;;29.53;36.75;102332.56;5090036;28;19920;-43
2023/06/24 12:30:35;;;;;;;;;;;;;;;29.43;39.68;102325.75;5089406;28;19931;-44